| Date | Time | Temp. (oF) | Dew Point (oF) | Rel. Hum. (%) | Press. (in.) | Wind Dir. | Wind Speed (mph) | Hourly Rainfall (in.) |
|
|---|---|---|---|---|---|---|---|---|---|
| 1 | 04/10 | 00:00 | 61 | 60 | 98 | 30.18 | W | 2 | 0.00 |
| 2 | 04/09 | 23:00 | 62 | 60 | 96 | 30.17 | W | 8 | 0.02 |
| 3 | 04/09 | 22:00 | 63 | 60 | 93 | 30.16 | SSW | 6 | 0.00 |
| 4 | 04/09 | 21:00 | 63 | 61 | 96 | 30.14 | S | 9 | 0.01 |
| 5 | 04/09 | 20:00 | 63 | 60 | 92 | 30.13 | S | 9 | 0.01 |
| 6 | 04/09 | 19:00 | 64 | 59 | 86 | 30.13 | S | 13 | 0.00 |
| 7 | 04/09 | 18:00 | 64 | 61 | 90 | 30.12 | SSE | 17 | 0.00 |
| 8 | 04/09 | 17:00 | 66 | 61 | 86 | 30.11 | S | 10 | 0.00 |
| 9 | 04/09 | 16:00 | 68 | 61 | 80 | 30.11 | SW | 5 | 0.00 |
| 10 | 04/09 | 15:00 | 70 | 59 | 69 | 30.11 | SW | 10 | 0.00 |
| 11 | 04/09 | 14:00 | 69 | 58 | 69 | 30.12 | S | 11 | 0.00 |
| 12 | 04/09 | 13:00 | 72 | 57 | 60 | 30.12 | S | 13 | 0.00 |
| 13 | 04/09 | 12:00 | 71 | 57 | 62 | 30.13 | S | 15 | 0.00 |
| 14 | 04/09 | 11:00 | 71 | 57 | 63 | 30.13 | SSW | 15 | 0.00 |
| 15 | 04/09 | 10:00 | 67 | 56 | 68 | 30.14 | S | 11 | 0.00 |
| 16 | 04/09 | 09:00 | 62 | 55 | 79 | 30.13 | SSE | 8 | 0.00 |
| 17 | 04/09 | 08:00 | 59 | 53 | 82 | 30.14 | S | 7 | 0.00 |
| 18 | 04/09 | 07:00 | 57 | 52 | 85 | 30.14 | SSE | 5 | 0.00 |
| 19 | 04/09 | 06:00 | 58 | 52 | 82 | 30.14 | SSE | 9 | 0.00 |
| 20 | 04/09 | 05:00 | 58 | 51 | 79 | 30.15 | S | 6 | 0.00 |
| 21 | 04/09 | 04:00 | 59 | 51 | 77 | 30.15 | S | 9 | 0.00 |
| 22 | 04/09 | 03:00 | 59 | 51 | 75 | 30.15 | S | 9 | 0.00 |
| 23 | 04/09 | 02:00 | 59 | 50 | 74 | 30.17 | S | 9 | 0.00 |
| 24 | 04/09 | 01:00 | 58 | 49 | 74 | 30.19 | S | 12 | 0.00 |